createdAt,value
2022-08-05T00:00:13.146Z,15.24
2022-08-05T00:01:20.873Z,15.26
2022-08-05T00:02:13.165Z,15.25
2022-08-05T00:03:15.474Z,15.27
2022-08-05T00:04:11.060Z,15.25
2022-08-05T00:06:02.064Z,15.27
2022-08-05T00:06:29.284Z,15.27
2022-08-05T00:07:27.510Z,15.31
2022-08-05T00:08:32.916Z,15.32
2022-08-05T00:09:16.040Z,15.32
2022-08-05T00:10:13.134Z,15.32
2022-08-05T00:11:20.709Z,15.35
2022-08-05T00:12:13.312Z,15.36
2022-08-05T00:13:18.764Z,15.36
2022-08-05T00:14:17.030Z,15.35
2022-08-05T00:15:54.133Z,15.38
2022-08-05T00:16:13.129Z,15.36
2022-08-05T00:17:19.608Z,15.38
2022-08-05T00:18:21.289Z,15.39
2022-08-05T00:19:13.154Z,15.39
2022-08-05T00:20:11.070Z,15.40
2022-08-05T00:21:11.094Z,15.39
2022-08-05T00:22:11.677Z,15.40
2022-08-05T00:23:12.782Z,15.38
2022-08-05T00:24:11.366Z,15.32
2022-08-05T00:25:13.205Z,15.33
2022-08-05T00:26:11.066Z,15.34
2022-08-05T00:27:16.751Z,15.32
2022-08-05T00:28:13.141Z,15.30
2022-08-05T00:29:11.067Z,15.27
2022-08-05T00:30:11.353Z,15.26
2022-08-05T00:31:11.055Z,15.28
2022-08-05T00:32:12.973Z,15.29
2022-08-05T00:33:15.718Z,15.32
2022-08-05T00:34:56.202Z,15.31
2022-08-05T00:35:13.212Z,15.30
2022-08-05T00:36:15.920Z,15.31
2022-08-05T00:37:14.292Z,15.28
2022-08-05T00:38:11.062Z,15.30
2022-08-05T00:39:13.877Z,15.27
2022-08-05T00:40:11.062Z,15.27
2022-08-05T00:41:11.852Z,15.28
2022-08-05T00:42:11.060Z,15.28
2022-08-05T00:43:15.422Z,15.27
2022-08-05T00:44:11.064Z,15.27
2022-08-05T00:45:11.639Z,15.27
2022-08-05T00:46:11.064Z,15.24
2022-08-05T00:47:26.345Z,15.23
2022-08-05T00:48:17.127Z,15.26
2022-08-05T00:49:14.004Z,15.28
2022-08-05T00:50:11.063Z,15.29
2022-08-05T00:51:51.873Z,15.31
2022-08-05T00:52:13.164Z,15.26
2022-08-05T00:54:00.546Z,15.25
2022-08-05T00:54:13.225Z,15.26
2022-08-05T00:55:11.062Z,15.22
2022-08-05T00:56:11.062Z,15.25
2022-08-05T00:57:11.063Z,15.23
2022-08-05T00:58:14.060Z,15.26
2022-08-05T00:59:11.062Z,15.27
2022-08-05T01:00:13.270Z,15.26
2022-08-05T01:01:11.090Z,15.20
2022-08-05T01:02:11.064Z,15.22
2022-08-05T01:03:22.195Z,15.21
2022-08-05T01:04:14.208Z,15.22
2022-08-05T01:05:11.059Z,15.23
2022-08-05T01:06:14.264Z,15.23
2022-08-05T01:07:13.741Z,15.23
2022-08-05T01:08:42.368Z,15.24
2022-08-05T01:09:13.121Z,15.22
2022-08-05T01:10:13.068Z,15.24
2022-08-05T01:11:22.089Z,15.21
2022-08-05T01:12:18.424Z,15.21
2022-08-05T01:13:22.462Z,15.21
2022-08-05T01:14:27.202Z,15.17
2022-08-05T01:15:35.057Z,15.17
2022-08-05T01:16:21.071Z,15.17
2022-08-05T01:17:20.568Z,15.15
2022-08-05T01:18:14.079Z,15.12
2022-08-05T01:19:19.067Z,15.12
2022-08-05T01:20:19.073Z,15.13
2022-08-05T01:21:22.861Z,15.14
2022-08-05T01:22:24.172Z,15.18
2022-08-05T01:23:22.702Z,15.15
2022-08-05T01:24:25.061Z,15.10
2022-08-05T01:25:21.281Z,15.08
2022-08-05T01:26:22.062Z,15.08
2022-08-05T01:27:19.598Z,15.07
2022-08-05T01:28:22.060Z,15.10
2022-08-05T01:29:18.064Z,15.10
2022-08-05T01:30:18.746Z,14.98
2022-08-05T01:31:24.340Z,14.99
2022-08-05T01:32:12.548Z,14.96
2022-08-05T01:33:11.069Z,14.99
2022-08-05T01:34:22.104Z,14.98
2022-08-05T01:35:51.722Z,14.98
2022-08-05T01:36:18.116Z,14.99
2022-08-05T01:37:18.047Z,14.93
2022-08-05T01:38:24.851Z,14.87
2022-08-05T01:39:13.252Z,14.87
2022-08-05T01:40:11.089Z,14.89
2022-08-05T01:41:11.061Z,14.93
2022-08-05T01:42:12.062Z,14.93
2022-08-05T01:43:11.058Z,14.95
2022-08-05T01:44:15.346Z,14.94
2022-08-05T01:45:11.065Z,14.91
2022-08-05T01:46:16.487Z,14.92
2022-08-05T01:47:13.146Z,14.93
2022-08-05T01:48:11.067Z,14.86
2022-08-05T01:49:23.142Z,14.86
2022-08-05T01:50:20.349Z,14.86
2022-08-05T01:51:13.174Z,14.89
2022-08-05T01:52:17.564Z,14.85
2022-08-05T01:53:15.109Z,14.82
2022-08-05T01:54:13.067Z,14.80
2022-08-05T01:55:12.061Z,14.81
2022-08-05T01:56:13.064Z,14.83
2022-08-05T01:58:11.777Z,14.84
2022-08-05T01:58:15.793Z,14.85
2022-08-05T01:59:15.081Z,14.82
2022-08-05T02:00:11.836Z,14.82
2022-08-05T02:01:11.074Z,14.84
2022-08-05T02:02:11.102Z,14.86
2022-08-05T02:03:29.030Z,14.89
2022-08-05T02:04:13.117Z,14.90
2022-08-05T02:05:13.064Z,14.93
2022-08-05T02:06:33.927Z,14.95
2022-08-05T02:07:22.008Z,14.95
2022-08-05T02:08:13.128Z,14.95
2022-08-05T02:09:14.721Z,14.91
2022-08-05T02:10:11.063Z,14.91
2022-08-05T02:11:14.113Z,14.93
2022-08-05T02:12:20.292Z,14.93
2022-08-05T02:13:18.071Z,14.91
2022-08-05T02:14:13.143Z,14.94
2022-08-05T02:15:15.553Z,14.92
2022-08-05T02:16:22.306Z,14.91
2022-08-05T02:17:16.835Z,14.94
2022-08-05T02:18:32.645Z,14.93
2022-08-05T02:19:21.061Z,14.93
2022-08-05T02:20:20.812Z,14.91
2022-08-05T02:21:21.073Z,14.90
2022-08-05T02:22:17.536Z,14.85
2022-08-05T02:23:14.898Z,14.81
2022-08-05T02:24:14.061Z,14.83
2022-08-05T02:25:18.062Z,14.83
2022-08-05T02:26:11.718Z,14.85
2022-08-05T02:27:12.069Z,14.85
2022-08-05T02:28:12.060Z,14.85
2022-08-05T02:29:21.389Z,14.84
2022-08-05T02:30:14.227Z,14.86
2022-08-05T02:31:14.533Z,14.86
2022-08-05T02:32:11.060Z,14.86
2022-08-05T02:33:11.061Z,14.87
2022-08-05T02:34:11.060Z,14.81
2022-08-05T02:35:14.514Z,14.81
2022-08-05T02:36:15.542Z,14.76
2022-08-05T02:37:11.059Z,14.75
2022-08-05T02:38:11.065Z,14.65
2022-08-05T02:39:13.151Z,14.65
2022-08-05T02:40:11.062Z,14.64
2022-08-05T02:41:17.076Z,14.65
2022-08-05T02:42:27.719Z,14.66
2022-08-05T02:43:15.432Z,14.68
2022-08-05T02:44:12.167Z,14.66
2022-08-05T02:45:11.063Z,14.59
2022-08-05T02:46:12.074Z,14.58
2022-08-05T02:47:11.060Z,14.55
2022-08-05T02:48:12.423Z,14.54
2022-08-05T02:49:11.250Z,14.51
2022-08-05T02:50:11.857Z,14.47
2022-08-05T02:51:12.064Z,14.46
2022-08-05T02:52:25.928Z,14.46
2022-08-05T02:53:19.063Z,14.48
2022-08-05T02:54:36.532Z,14.47
2022-08-05T02:55:13.128Z,14.49
2022-08-05T02:56:11.066Z,14.41
2022-08-05T02:58:12.051Z,14.41
2022-08-05T02:58:13.291Z,14.45
2022-08-05T02:59:11.065Z,14.40
2022-08-05T03:00:13.071Z,14.41
2022-08-05T03:01:13.106Z,14.43
2022-08-05T03:02:11.073Z,14.39
2022-08-05T03:03:11.065Z,14.38
2022-08-05T03:04:14.345Z,14.35
2022-08-05T03:05:11.073Z,14.34
2022-08-05T03:06:54.482Z,14.37
2022-08-05T03:07:17.662Z,14.38
2022-08-05T03:08:14.500Z,14.38
2022-08-05T03:09:17.742Z,14.39
2022-08-05T03:10:13.262Z,14.35
2022-08-05T03:11:57.367Z,14.32
2022-08-05T03:12:13.061Z,14.34
2022-08-05T03:14:13.352Z,14.40
2022-08-05T03:15:12.254Z,14.41
2022-08-05T03:16:11.067Z,14.46
2022-08-05T03:17:11.065Z,14.48
2022-08-05T03:18:11.066Z,14.48
2022-08-05T03:19:17.143Z,14.52
2022-08-05T03:20:13.438Z,14.48
2022-08-05T03:21:11.067Z,14.47
2022-08-05T03:22:16.606Z,14.45
2022-08-05T03:23:13.156Z,14.43
2022-08-05T03:24:11.058Z,14.42
2022-08-05T03:25:31.528Z,14.43
2022-08-05T03:26:31.781Z,14.38
2022-08-05T03:27:13.134Z,14.38
2022-08-05T03:28:11.054Z,14.39
2022-08-05T03:29:12.314Z,14.41
2022-08-05T03:30:13.142Z,14.42
2022-08-05T03:31:11.058Z,14.40
2022-08-05T03:32:14.239Z,14.40
2022-08-05T03:33:11.066Z,14.41
2022-08-05T03:34:11.059Z,14.40
2022-08-05T03:35:11.063Z,14.39
2022-08-05T03:36:11.915Z,14.41
2022-08-05T03:37:11.061Z,14.43
2022-08-05T03:38:12.063Z,14.46
2022-08-05T03:39:13.090Z,14.47
2022-08-05T03:40:14.300Z,14.48
2022-08-05T03:41:11.109Z,14.47
2022-08-05T03:42:11.061Z,14.50
2022-08-05T03:43:58.825Z,14.50
2022-08-05T03:44:13.155Z,14.51
2022-08-05T03:45:21.601Z,14.54
2022-08-05T03:46:13.158Z,14.55
2022-08-05T03:47:11.063Z,14.55
2022-08-05T03:48:11.087Z,14.54
2022-08-05T03:49:11.061Z,14.52
2022-08-05T03:50:11.063Z,14.47
2022-08-05T03:52:38.777Z,14.50
2022-08-05T03:52:39.071Z,14.46
2022-08-05T03:55:50.311Z,14.43
2022-08-05T03:55:51.764Z,14.41
2022-08-05T03:56:05.994Z,14.48
2022-08-05T03:56:30.476Z,14.49
2022-08-05T03:57:41.729Z,14.51
2022-08-05T03:58:14.156Z,14.51
2022-08-05T03:59:20.186Z,14.54
2022-08-05T04:00:15.546Z,14.55
2022-08-05T04:01:12.846Z,14.53
2022-08-05T04:02:14.860Z,14.54
2022-08-05T04:03:26.645Z,14.55
2022-08-05T04:04:13.106Z,14.54
2022-08-05T04:05:11.064Z,14.52
2022-08-05T04:06:11.058Z,14.53
2022-08-05T04:07:11.064Z,14.54
2022-08-05T04:08:14.541Z,14.56
2022-08-05T04:09:13.145Z,14.54
2022-08-05T04:10:11.064Z,14.49
2022-08-05T04:11:13.234Z,14.48
2022-08-05T04:12:24.397Z,14.44
2022-08-05T04:13:13.342Z,14.44
2022-08-05T04:14:11.063Z,14.44
2022-08-05T04:15:15.510Z,14.46
2022-08-05T04:16:11.068Z,14.45
2022-08-05T04:17:11.367Z,14.44
2022-08-05T04:18:20.243Z,14.40
2022-08-05T04:19:14.096Z,14.35
2022-08-05T04:20:17.063Z,14.36
2022-08-05T04:21:11.286Z,14.34
2022-08-05T04:22:11.849Z,14.31
2022-08-05T04:23:12.480Z,14.29
2022-08-05T04:24:19.601Z,14.28
2022-08-05T04:25:13.217Z,14.25
2022-08-05T04:26:11.065Z,14.27
2022-08-05T04:27:11.059Z,14.23
2022-08-05T04:28:12.828Z,14.20
2022-08-05T04:29:11.065Z,14.15
2022-08-05T04:30:11.060Z,14.13
2022-08-05T04:31:11.061Z,14.12
2022-08-05T04:32:11.065Z,14.15
2022-08-05T04:33:11.057Z,14.16
2022-08-05T04:34:31.547Z,14.15
2022-08-05T04:35:17.656Z,14.14
2022-08-05T04:36:44.763Z,14.16
2022-08-05T04:37:13.138Z,14.14
2022-08-05T04:38:11.058Z,14.12
2022-08-05T04:39:11.122Z,14.14
2022-08-05T04:40:11.058Z,14.15
2022-08-05T04:41:11.059Z,14.15
2022-08-05T04:42:11.060Z,14.09
2022-08-05T04:43:16.618Z,14.07
2022-08-05T04:44:13.209Z,14.07
2022-08-05T04:45:11.068Z,14.05
2022-08-05T04:46:13.161Z,14.04
2022-08-05T04:47:14.599Z,14.02
2022-08-05T04:48:18.600Z,13.99
2022-08-05T04:49:14.779Z,14.00
2022-08-05T04:50:11.755Z,13.97
2022-08-05T04:51:11.589Z,13.97
2022-08-05T04:52:11.063Z,13.97
2022-08-05T04:53:11.063Z,13.96
2022-08-05T04:54:12.222Z,13.91
2022-08-05T04:55:13.940Z,13.93
2022-08-05T04:56:33.838Z,13.91
2022-08-05T04:57:13.160Z,13.91
2022-08-05T04:58:12.435Z,13.88
2022-08-05T04:59:21.978Z,13.88
2022-08-05T05:00:13.330Z,13.84
2022-08-05T05:01:11.117Z,13.83
2022-08-05T05:02:36.261Z,13.82
2022-08-05T05:03:13.491Z,13.82
2022-08-05T05:04:13.118Z,13.82
2022-08-05T05:05:16.626Z,13.81
2022-08-05T05:06:39.035Z,13.82
2022-08-05T05:07:15.821Z,13.81
2022-08-05T05:08:14.479Z,13.77
2022-08-05T05:09:14.044Z,13.75
2022-08-05T05:10:11.070Z,13.76
2022-08-05T05:11:11.060Z,13.78
2022-08-05T05:12:11.579Z,13.72
2022-08-05T05:13:13.069Z,13.75
2022-08-05T05:14:16.291Z,13.74
2022-08-05T05:15:13.190Z,13.74
2022-08-05T05:16:11.063Z,13.72
2022-08-05T05:17:11.064Z,13.70
2022-08-05T05:18:12.062Z,13.62
2022-08-05T05:19:19.515Z,13.64
2022-08-05T05:20:13.149Z,13.60
2022-08-05T05:21:11.065Z,13.55
2022-08-05T05:22:23.570Z,13.54
2022-08-05T05:23:19.893Z,13.56
2022-08-05T05:24:13.154Z,13.57
2022-08-05T05:25:16.909Z,13.60
2022-08-05T05:26:13.193Z,13.63
2022-08-05T05:27:11.057Z,13.62
2022-08-05T05:28:11.059Z,13.64
2022-08-05T05:29:14.536Z,13.64
2022-08-05T05:30:15.373Z,13.60
2022-08-05T05:31:13.140Z,13.58
2022-08-05T05:33:17.066Z,13.63
2022-08-05T05:34:11.062Z,13.67
2022-08-05T05:35:11.059Z,13.62
2022-08-05T05:36:13.114Z,13.63
2022-08-05T05:37:11.062Z,13.64
2022-08-05T05:38:13.471Z,13.65
2022-08-05T05:39:11.509Z,13.66
2022-08-05T05:40:11.063Z,13.67
2022-08-05T05:41:11.068Z,13.70
2022-08-05T05:42:13.300Z,13.70
2022-08-05T05:43:11.056Z,13.70
2022-08-05T05:44:35.638Z,13.73
2022-08-05T05:45:14.124Z,13.72
2022-08-05T05:46:17.452Z,13.71
2022-08-05T05:47:21.518Z,13.70
2022-08-05T05:48:16.150Z,13.70
2022-08-05T05:49:13.016Z,13.66
2022-08-05T05:50:16.280Z,13.66
2022-08-05T05:51:15.635Z,13.65
2022-08-05T05:52:25.513Z,13.62
2022-08-05T05:53:21.034Z,13.66
2022-08-05T05:54:13.141Z,13.67
2022-08-05T05:55:13.267Z,13.67
2022-08-05T05:56:11.062Z,13.70
2022-08-05T05:57:13.587Z,13.71
2022-08-05T05:58:11.056Z,13.70
2022-08-05T05:59:11.063Z,13.67
2022-08-05T06:00:15.063Z,13.64
2022-08-05T06:01:13.391Z,13.66
2022-08-05T06:02:11.070Z,13.65
2022-08-05T06:03:39.737Z,13.67
2022-08-05T06:04:13.265Z,13.70
2022-08-05T06:05:16.971Z,13.68
2022-08-05T06:06:13.143Z,13.71
2022-08-05T06:07:11.064Z,13.73
2022-08-05T06:08:11.057Z,13.71
2022-08-05T06:09:17.680Z,13.78
2022-08-05T06:10:13.210Z,13.79
2022-08-05T06:11:11.061Z,13.82
2022-08-05T06:12:12.115Z,13.83
2022-08-05T06:13:11.069Z,13.82
2022-08-05T06:14:11.061Z,13.87
2022-08-05T06:15:14.857Z,13.90
2022-08-05T06:16:28.839Z,13.94
2022-08-05T06:17:24.683Z,13.97
2022-08-05T06:18:13.157Z,13.99
2022-08-05T06:19:11.063Z,14.00
2022-08-05T06:20:21.305Z,14.04
2022-08-05T06:21:18.431Z,14.10
2022-08-05T06:22:13.144Z,14.10
2022-08-05T06:23:13.166Z,14.14
2022-08-05T06:24:11.378Z,14.16
2022-08-05T06:25:59.502Z,14.18
2022-08-05T06:26:21.462Z,14.22
2022-08-05T06:27:17.329Z,14.24
2022-08-05T06:28:21.185Z,14.24
2022-08-05T06:29:43.018Z,14.26
2022-08-05T06:30:16.696Z,14.31
2022-08-05T06:31:17.992Z,14.31
2022-08-05T06:32:25.531Z,14.32
2022-08-05T06:33:13.107Z,14.35
2022-08-05T06:34:13.170Z,14.37
2022-08-05T06:35:21.631Z,14.40
2022-08-05T06:36:13.190Z,14.42
2022-08-05T06:37:11.062Z,14.39
2022-08-05T06:38:11.366Z,14.41
2022-08-05T06:39:11.131Z,14.43
2022-08-05T06:40:11.063Z,14.43
2022-08-05T06:41:11.646Z,14.47
2022-08-05T06:42:11.062Z,14.45
2022-08-05T06:43:59.723Z,14.47
2022-08-05T06:44:13.160Z,14.47
2022-08-05T06:45:20.897Z,14.47
2022-08-05T06:46:13.166Z,14.50
2022-08-05T06:48:11.426Z,14.50
2022-08-05T06:48:53.701Z,14.47
2022-08-05T06:49:13.160Z,14.54
2022-08-05T06:50:11.064Z,14.51
2022-08-05T06:51:23.755Z,14.53
2022-08-05T06:52:38.301Z,14.57
2022-08-05T06:53:27.865Z,14.61
2022-08-05T06:54:18.167Z,14.60
2022-08-05T06:55:13.147Z,14.58
2022-08-05T06:56:25.629Z,14.62
2022-08-05T06:57:56.795Z,14.65
2022-08-05T06:58:30.182Z,14.65
2022-08-05T06:59:13.219Z,14.71
2022-08-05T07:00:11.059Z,14.74
2022-08-05T07:01:11.089Z,14.69
2022-08-05T07:02:11.063Z,14.73
2022-08-05T07:03:11.081Z,14.77
2022-08-05T07:04:11.063Z,14.79
2022-08-05T07:05:14.238Z,14.79
2022-08-05T07:06:15.169Z,14.79
2022-08-05T07:07:11.058Z,14.83
2022-08-05T07:08:11.247Z,14.89
2022-08-05T07:09:11.064Z,14.92
2022-08-05T07:10:11.059Z,14.93
2022-08-05T07:11:15.306Z,14.98
2022-08-05T07:12:11.072Z,15.01
2022-08-05T07:13:15.064Z,14.98
2022-08-05T07:14:20.749Z,14.99
2022-08-05T07:15:34.511Z,15.03
2022-08-05T07:18:00.756Z,15.15
2022-08-05T07:18:01.837Z,15.11
2022-08-05T07:18:17.785Z,15.18
2022-08-05T07:19:16.109Z,15.17
2022-08-05T07:20:34.044Z,15.20
2022-08-05T07:21:13.211Z,15.17
2022-08-05T07:22:11.071Z,15.19
2022-08-05T07:23:13.036Z,15.21
2022-08-05T07:24:13.150Z,15.23
2022-08-05T07:25:54.153Z,15.26
2022-08-05T07:26:13.382Z,15.25
2022-08-05T07:27:11.056Z,15.26
2022-08-05T07:28:17.109Z,15.33
2022-08-05T07:29:13.155Z,15.37
2022-08-05T07:30:24.366Z,15.43
2022-08-05T07:31:13.147Z,15.43
2022-08-05T07:32:11.066Z,15.44
2022-08-05T07:33:16.036Z,15.46
2022-08-05T07:34:13.964Z,15.48
2022-08-05T07:35:55.961Z,15.50
2022-08-05T07:36:20.839Z,15.50
2022-08-05T07:37:13.143Z,15.53
2022-08-05T07:38:12.390Z,15.51
2022-08-05T07:39:50.369Z,15.52
2022-08-05T07:40:31.472Z,15.57
2022-08-05T07:42:09.286Z,15.55
2022-08-05T07:42:15.427Z,15.53
2022-08-05T07:43:14.487Z,15.45
2022-08-05T07:44:19.197Z,15.42
2022-08-05T07:45:13.219Z,15.47
2022-08-05T07:46:20.804Z,15.54
2022-08-05T07:47:14.772Z,15.59
2022-08-05T07:48:11.061Z,15.59
2022-08-05T07:49:11.059Z,15.60
2022-08-05T07:50:11.066Z,15.65
2022-08-05T07:51:23.571Z,15.68
2022-08-05T07:52:13.146Z,15.67
2022-08-05T07:53:11.061Z,15.61
2022-08-05T07:54:12.662Z,15.59
2022-08-05T07:55:44.607Z,15.62
2022-08-05T07:57:02.874Z,15.68
2022-08-05T07:57:41.265Z,15.69
2022-08-05T07:58:54.484Z,15.74
2022-08-05T07:59:13.104Z,15.79
2022-08-05T08:00:11.563Z,15.84
2022-08-05T08:01:12.313Z,15.78
2022-08-05T08:02:15.860Z,15.82
2022-08-05T08:03:15.974Z,15.87
2022-08-05T08:04:11.060Z,15.98
2022-08-05T08:05:11.371Z,16.06
2022-08-05T08:06:11.066Z,16.15
2022-08-05T08:07:11.063Z,16.15
2022-08-05T08:08:12.390Z,16.12
2022-08-05T08:09:11.069Z,16.15
2022-08-05T08:10:11.063Z,16.20
2022-08-05T08:11:15.927Z,16.23
2022-08-05T08:12:35.370Z,16.30
2022-08-05T08:13:13.131Z,16.29
2022-08-05T08:14:18.249Z,16.39
2022-08-05T08:15:15.341Z,16.44
2022-08-05T08:16:35.649Z,16.50
2022-08-05T08:17:16.459Z,16.50
2022-08-05T08:18:13.911Z,16.54
2022-08-05T08:19:37.969Z,16.47
2022-08-05T08:20:44.053Z,16.35
2022-08-05T08:21:17.520Z,16.33
2022-08-05T08:22:11.062Z,16.32
2022-08-05T08:23:59.963Z,16.37
2022-08-05T08:24:14.263Z,16.24
2022-08-05T08:25:16.367Z,16.31
2022-08-05T08:26:13.139Z,16.32
2022-08-05T08:27:11.067Z,16.33
2022-08-05T08:28:18.954Z,16.32
2022-08-05T08:29:29.339Z,16.37
2022-08-05T08:30:29.858Z,16.41
2022-08-05T08:31:15.059Z,16.49
2022-08-05T08:32:11.060Z,16.62
2022-08-05T08:33:13.775Z,16.68
2022-08-05T08:34:11.059Z,16.72
2022-08-05T08:35:13.618Z,16.74
2022-08-05T08:36:37.490Z,16.90
2022-08-05T08:37:13.226Z,17.00
2022-08-05T08:38:16.431Z,17.08
2022-08-05T08:39:15.741Z,17.23
2022-08-05T08:40:13.136Z,17.34
2022-08-05T08:41:14.048Z,17.43
2022-08-05T08:42:32.513Z,17.48
2022-08-05T08:45:04.465Z,17.55
2022-08-05T08:45:18.161Z,17.68
2022-08-05T08:45:22.868Z,17.85
2022-08-05T08:46:16.260Z,17.90
2022-08-05T08:47:21.676Z,17.95
2022-08-05T08:48:42.954Z,18.02
2022-08-05T08:50:07.582Z,17.87
2022-08-05T08:50:30.988Z,17.94
2022-08-05T08:52:04.406Z,17.96
2022-08-05T08:52:15.193Z,18.07
2022-08-05T08:53:12.176Z,18.19
2022-08-05T08:54:11.064Z,18.34
2022-08-05T08:55:13.214Z,18.43
2022-08-05T08:56:11.067Z,18.43
2022-08-05T08:57:13.367Z,18.35
2022-08-05T08:58:12.956Z,18.09
2022-08-05T08:59:19.457Z,18.09
2022-08-05T09:00:13.231Z,18.05
2022-08-05T09:01:15.785Z,17.89
2022-08-05T09:02:13.218Z,18.04
2022-08-05T09:03:11.064Z,18.20
2022-08-05T09:04:11.063Z,18.29
2022-08-05T09:05:17.708Z,18.40
2022-08-05T09:06:15.746Z,18.48
2022-08-05T09:07:19.585Z,18.57
2022-08-05T09:08:13.202Z,18.69
2022-08-05T09:09:11.072Z,18.84
2022-08-05T09:10:11.066Z,18.85
2022-08-05T09:11:13.683Z,18.87
2022-08-05T09:12:19.982Z,18.82
2022-08-05T09:13:15.964Z,18.92
2022-08-05T09:14:57.403Z,18.97
2022-08-05T09:15:13.199Z,19.01
2022-08-05T09:16:14.699Z,19.14
2022-08-05T09:17:41.417Z,19.30
2022-08-05T09:18:13.393Z,19.22
2022-08-05T09:19:12.022Z,19.41
2022-08-05T09:20:11.085Z,19.54
2022-08-05T09:21:11.531Z,19.43
2022-08-05T09:22:23.300Z,19.08
2022-08-05T09:23:18.940Z,19.26
2022-08-05T09:24:11.089Z,19.39
2022-08-05T09:25:14.041Z,19.59
2022-08-05T09:26:15.872Z,19.75
2022-08-05T09:27:13.206Z,19.76
2022-08-05T09:28:23.221Z,19.95
2022-08-05T09:29:11.059Z,19.95
2022-08-05T09:30:16.502Z,19.84
2022-08-05T09:31:22.458Z,19.87
2022-08-05T09:32:41.098Z,19.77
2022-08-05T09:33:15.294Z,19.94
2022-08-05T09:34:11.060Z,19.83
2022-08-05T09:35:26.693Z,19.88
2022-08-05T09:36:16.309Z,19.97
2022-08-05T09:37:19.061Z,20.21
2022-08-05T09:38:17.916Z,20.20
2022-08-05T09:39:18.135Z,20.28
2022-08-05T09:40:17.188Z,20.40
2022-08-05T09:41:11.065Z,20.30
2022-08-05T09:42:17.408Z,20.19
2022-08-05T09:43:24.137Z,20.21
2022-08-05T09:44:11.181Z,20.33
2022-08-05T09:46:04.567Z,20.36
2022-08-05T09:46:21.080Z,20.50
2022-08-05T09:47:17.261Z,20.65
2022-08-05T09:48:19.070Z,20.85
2022-08-05T09:49:19.870Z,21.01
2022-08-05T09:50:11.065Z,20.65
2022-08-05T09:51:15.192Z,20.63
2022-08-05T09:52:20.061Z,20.45
2022-08-05T09:53:13.079Z,20.53
2022-08-05T09:54:14.228Z,20.21
2022-08-05T09:55:56.369Z,20.23
2022-08-05T09:56:13.631Z,20.10
2022-08-05T09:57:20.791Z,19.97
2022-08-05T09:58:15.132Z,19.94
2022-08-05T09:59:16.912Z,19.82
2022-08-05T10:00:17.152Z,19.86
2022-08-05T10:01:13.744Z,19.76
2022-08-05T10:02:11.099Z,19.80
2022-08-05T10:03:13.064Z,19.97
2022-08-05T10:04:13.174Z,20.07
2022-08-05T10:05:15.065Z,20.36
2022-08-05T10:06:14.825Z,20.67
2022-08-05T10:07:20.015Z,20.85
2022-08-05T10:08:36.032Z,20.85
2022-08-05T10:09:27.581Z,20.54
2022-08-05T10:10:15.324Z,20.36
2022-08-05T10:11:15.065Z,20.14
2022-08-05T10:12:31.103Z,19.96
2022-08-05T10:13:14.639Z,19.89
2022-08-05T10:14:19.066Z,19.77
2022-08-05T10:15:17.111Z,19.86
2022-08-05T10:16:19.069Z,20.00
2022-08-05T10:17:37.757Z,19.99
2022-08-05T10:18:19.334Z,20.23
2022-08-05T10:19:11.815Z,20.41
2022-08-05T10:20:12.090Z,20.57
2022-08-05T10:21:15.643Z,20.69
2022-08-05T10:22:15.687Z,20.80
2022-08-05T10:23:33.940Z,20.77
2022-08-05T10:24:13.537Z,20.80
2022-08-05T10:25:11.063Z,20.90
2022-08-05T10:26:13.881Z,21.07
2022-08-05T10:27:11.089Z,20.93
2022-08-05T10:28:17.700Z,21.06
2022-08-05T10:29:13.069Z,21.26
2022-08-05T10:31:20.957Z,21.35
2022-08-05T10:32:52.206Z,21.21
2022-08-05T10:32:53.996Z,21.49
2022-08-05T10:33:15.051Z,21.27
2022-08-05T10:34:11.062Z,21.37
2022-08-05T10:35:11.058Z,21.32
2022-08-05T10:36:11.067Z,21.15
2022-08-05T10:37:11.060Z,21.40
2022-08-05T10:38:11.888Z,21.43
2022-08-05T10:39:24.320Z,21.35
2022-08-05T10:40:22.487Z,21.37
2022-08-05T10:41:23.473Z,21.35
2022-08-05T10:42:22.841Z,21.26
2022-08-05T10:43:23.242Z,21.15
2022-08-05T10:44:15.096Z,20.90
2022-08-05T10:45:21.153Z,20.57
2022-08-05T10:46:13.169Z,20.56
2022-08-05T10:47:26.298Z,20.57
2022-08-05T10:48:31.460Z,20.43
2022-08-05T10:49:16.970Z,20.37
2022-08-05T10:50:32.108Z,20.18
2022-08-05T10:51:22.210Z,20.35
2022-08-05T10:52:11.062Z,20.51
2022-08-05T10:53:19.064Z,20.61
2022-08-05T10:54:28.258Z,20.83
2022-08-05T10:55:16.032Z,20.84
2022-08-05T10:56:25.415Z,20.89
2022-08-05T10:57:15.230Z,20.83
2022-08-05T10:58:15.558Z,20.76
2022-08-05T10:59:12.497Z,20.90
2022-08-05T11:00:19.058Z,20.91
2022-08-05T11:01:11.397Z,21.05
2022-08-05T11:02:14.057Z,20.83
2022-08-05T11:03:25.979Z,20.59
2022-08-05T11:04:21.318Z,20.53
2022-08-05T11:05:12.066Z,20.33
2022-08-05T11:06:15.284Z,20.17
2022-08-05T11:07:15.063Z,20.36
2022-08-05T11:08:34.321Z,20.49
2022-08-05T11:09:31.877Z,20.75
2022-08-05T11:10:27.526Z,20.85
2022-08-05T11:11:19.073Z,21.14
2022-08-05T11:12:19.069Z,21.38
2022-08-05T11:13:11.068Z,21.54
2022-08-05T11:14:11.070Z,21.74
2022-08-05T11:15:20.888Z,22.00
2022-08-05T11:16:19.070Z,22.15
2022-08-05T11:17:58.034Z,22.14
2022-08-05T11:18:21.334Z,22.12
2022-08-05T11:20:17.644Z,21.90
2022-08-05T11:20:21.290Z,21.95
2022-08-05T11:21:19.068Z,22.03
2022-08-05T11:22:19.067Z,21.93
2022-08-05T11:23:19.060Z,21.91
2022-08-05T11:24:29.768Z,21.66
2022-08-05T11:26:04.486Z,21.82
2022-08-05T11:26:32.250Z,21.89
2022-08-05T11:27:21.263Z,22.00
2022-08-05T11:28:21.064Z,21.83
2022-08-05T11:29:19.060Z,21.78
2022-08-05T11:30:11.061Z,21.86
2022-08-05T11:31:51.819Z,21.91
2022-08-05T11:32:21.272Z,22.09
2022-08-05T11:33:21.079Z,22.13
2022-08-05T11:34:15.037Z,22.14
2022-08-05T11:35:15.554Z,22.19
2022-08-05T11:36:11.059Z,22.20
2022-08-05T11:38:29.052Z,22.27
2022-08-05T11:38:29.840Z,22.25
2022-08-05T11:39:13.664Z,22.42
2022-08-05T11:40:11.061Z,22.55
2022-08-05T11:41:56.267Z,22.65
2022-08-05T11:42:18.343Z,22.62
2022-08-05T11:43:17.167Z,22.75
2022-08-05T11:44:40.298Z,22.58
2022-08-05T11:45:14.369Z,22.50
2022-08-05T11:46:15.212Z,22.66
2022-08-05T11:47:15.090Z,22.85
2022-08-05T11:48:11.587Z,22.76
2022-08-05T11:49:12.060Z,22.59
2022-08-05T11:50:14.293Z,22.47
2022-08-05T11:51:11.069Z,22.31
2022-08-05T11:52:13.165Z,22.26
2022-08-05T11:53:11.063Z,22.11
2022-08-05T11:54:13.873Z,22.16
2022-08-05T11:55:11.065Z,22.30
2022-08-05T11:56:11.376Z,22.45
2022-08-05T11:57:24.334Z,22.58
2022-08-05T11:58:13.187Z,22.77
2022-08-05T11:59:21.291Z,22.79
2022-08-05T12:00:19.066Z,22.88
2022-08-05T12:01:11.091Z,23.00
2022-08-05T12:02:12.223Z,23.16
2022-08-05T12:03:29.391Z,23.09
2022-08-05T12:04:13.667Z,23.16
2022-08-05T12:05:17.981Z,23.20
2022-08-05T12:06:11.065Z,23.10
2022-08-05T12:07:11.063Z,22.93
2022-08-05T12:08:17.896Z,22.83
2022-08-05T12:09:20.121Z,22.66
2022-08-05T12:10:19.093Z,22.59
2022-08-05T12:11:11.072Z,22.49
2022-08-05T12:12:13.253Z,22.26
2022-08-05T12:13:15.999Z,22.25
2022-08-05T12:14:13.161Z,22.13
2022-08-05T12:15:19.068Z,22.11
2022-08-05T12:16:17.250Z,22.05
2022-08-05T12:18:02.897Z,22.07
2022-08-05T12:18:13.437Z,22.09
2022-08-05T12:19:11.066Z,22.11
2022-08-05T12:20:25.691Z,22.07
2022-08-05T12:21:17.386Z,22.03
2022-08-05T12:22:11.068Z,21.94
2022-08-05T12:23:13.057Z,21.85
2022-08-05T12:24:11.055Z,21.85
2022-08-05T12:25:14.182Z,21.97
2022-08-05T12:26:11.059Z,22.14
2022-08-05T12:27:21.620Z,22.24
2022-08-05T12:28:15.720Z,22.23
2022-08-05T12:29:18.056Z,22.19
2022-08-05T12:30:15.596Z,22.25
2022-08-05T12:31:11.060Z,22.28
2022-08-05T12:32:13.153Z,22.26
2022-08-05T12:33:27.013Z,22.30
2022-08-05T12:34:20.554Z,22.22
2022-08-05T12:35:13.148Z,22.17
2022-08-05T12:36:11.110Z,22.15
2022-08-05T12:37:17.259Z,22.13
2022-08-05T12:38:11.071Z,22.03
2022-08-05T12:39:11.213Z,22.03
2022-08-05T12:40:26.593Z,21.73
2022-08-05T12:41:13.991Z,21.65
2022-08-05T12:42:14.672Z,21.59
2022-08-05T12:43:11.069Z,21.52
2022-08-05T12:44:11.630Z,21.53
2022-08-05T12:45:11.057Z,21.61
2022-08-05T12:46:20.743Z,21.90
2022-08-05T12:47:13.306Z,22.14
2022-08-05T12:48:17.611Z,22.23
2022-08-05T12:49:15.233Z,22.49
2022-08-05T12:50:15.060Z,22.77
2022-08-05T12:52:10.553Z,22.96
2022-08-05T12:52:23.911Z,23.10
2022-08-05T12:53:17.291Z,23.24
2022-08-05T12:54:16.477Z,22.94